KSFF/SFF METAR and TAF weather

Enter ICAO airport designator
Station Type Date Time Source
KSFF METAR 2020/07/11 22:53 UTC NOAA

KSFF 112253Z 22010G16KT 10SM FEW090 32/09 A2992 RMK AO2 SLP117 T03170094


Station Type Date Time Source
KSFF Decoded METAR 2020/07/11 22:53 UTC NOAA

FELTS FIELD, WA, United States (KSFF) 47-41N 117-19W 609M
Jul 11, 2020 - 06:53 PM EDT / 2020.07.11 2253 UTC
Wind: from the SW (220 degrees) at 12 MPH (10 KT) gusting to 18 MPH (16 KT):0
Visibility: 10 mile(s):0
Sky conditions: mostly clear
Temperature: 89.1 F (31.7 C)
Dew Point: 48.9 F (9.4 C)
Relative Humidity: 25%
Pressure (altimeter): 29.92 in. Hg (1013 hPa)
ob: KSFF 112253Z 22010G16KT 10SM FEW090 32/09 A2992 RMK AO2 SLP117 T03170094
cycle: 23

Station Type Date Time Source
KSFF TAF 2020/07/11 18:22 UTC NOAA

TAF KSFF 111720Z 1118/1218 12005KT P6SM FEW150 SCT250
FM112100 22007KT P6SM FEW150 SCT250
FM120000 22010G18KT P6SM SCT150 BKN250
FM121200 22008KT P6SM FEW150 SCT250

Example: see airport list